Reynolds, IN (47980)

6:04 AM EDT on July 26, 2014 (GMT -0400)
Bluewater Drive (KINMONTI6) Elev 623 ft | 40.76 °N, 86.75 °W | Change Station

Current weather conditions updated 3 minutes ago

Mostly Cloudy
Mostly Cloudy
68.5 °F
Feels Like 68.5 °F
N
5.3
Wind Variable Wind from South

Today is forecast to be Warmer than yesterday. Showers and thunderstorms tonight.

Today
High -- | Low -- °F
--% Chance of Precip.
Yesterday
High -- | Low -- °F
Precip. -- in
6:38 AM 9:09 PM
Waning Crescent, 0% visible
Pressure 29.89 in
Visibility 10.0 miles
Clouds Mostly Cloudy 8500 ft
Dew Point 68 °F
Humidity 98%
Rainfall 0.00 in
Snow Depth Not available.
UV 0 out of 12
Pollen 6.70 out of 12
Air Quality Not available.
Flu Activity Not available.
METAR KRZL 260955Z AUTO 19005KT 10SM BKN085 19/17 A2989 RMK AO2 LTG DSNT SW

More Conditions Fewer Conditions

Pressure 29.89 in
Visibility 10.0 miles
Clouds Mostly Cloudy 8500 ft
Dew Point 68 °F
Humidity 98%
Rainfall 0.00 in
Snow Depth Not available.
UV 0 out of 12
Pollen 6.70 out of 12
Air Quality Not available.
Flu Activity Not available.
METAR KRZL 260955Z AUTO 19005KT 10SM BKN085 19/17 A2989 RMK AO2 LTG DSNT SW

More Conditions Fewer Conditions

10-Day Weather Forecast

Almanac

Astronomy

Jul. 26, 2014 Rise Set
Actual Time 6:38 AM EDT 9:09 PM EDT
Civil Twilight 6:07 AM EDT 9:40 PM EDT
Nautical Twilight 5:28 AM EDT 10:19 PM EDT
Astronomical Twilight 4:44 AM EDT 11:02 PM EDT
Moon 6:31 AM EDT 8:43 PM EDT
Length of Visible Light 15h 33m
Length of Day
14h 30m
Tomorrow will be 1m 52s shorter.
Waning Crescent, 0% of the Moon is Illuminated
Today
Waning Crescent
Jul 26
New
Aug 3
First Quarter
Aug 10
Full
Aug 17
Last Quarter

Today's Extremes

State Highs State Lows

Community

WunderPhotos

Upload Photos

1,737,529 photos uploaded!

Nearby

Snow Depth

Station Depth Elevation
No new snow has been reported.

Earthquake Activity

City Distance Mag. Time & Date
No recent earthquake activity has been reported nearby.
Minimum magnitude displayed is 2.5.

Coastal Water Temperatures

Place Temperature
No Stations Reporting

Nearby Weather Stations

Station Location Temp. Dew Point Humidity Wind Precip. Elev Updated Type
Bluewater Drive, Monticello, IN 68.5 °F 68 °F 98% South  at  5.3 mph - / hr 623 ft 6:00 AM EDT Normal
Prophet's Ridge, West Lafayette, IN 67.5 °F 60 °F 78% SE  at  1.0 mph 0.00 in / hr 679 ft 6:04 AM EDT Normal
FFR Cooperative, Lafayette, IN 68.5 °F 61 °F 78% East  at  3.0 mph 0.00 in / hr 630 ft 6:04 AM EDT Rapid Fire
Pine View Farms, West Lafayette, IN 68.9 °F 61 °F 75% SSW  at  4.5 mph 0.00 in / hr 696 ft 6:04 AM EDT Rapid Fire
Pettit, IN 47905, Lafayette, IN 67.6 °F 62 °F 82% South  at  1.1 mph - / hr 682 ft 6:02 AM EDT Normal

Show More Stations Show Fewer Stations